sensor_id;sensor_type;location;lat;lon;timestamp;P1;durP1;ratioP1;P2;durP2;ratioP2
38787;SDS011;24536;45.488;12.238;2023-12-29T00:00:07;60.78;;;41.13;;
38787;SDS011;24536;45.488;12.238;2023-12-29T00:02:34;62.55;;;45.20;;
38787;SDS011;24536;45.488;12.238;2023-12-29T00:05:00;60.75;;;43.15;;
38787;SDS011;24536;45.488;12.238;2023-12-29T00:07:25;55.47;;;39.78;;
38787;SDS011;24536;45.488;12.238;2023-12-29T00:09:51;67.07;;;44.85;;
38787;SDS011;24536;45.488;12.238;2023-12-29T00:12:17;63.08;;;42.03;;
38787;SDS011;24536;45.488;12.238;2023-12-29T00:14:43;63.33;;;43.97;;
38787;SDS011;24536;45.488;12.238;2023-12-29T00:17:08;64.68;;;43.70;;
38787;SDS011;24536;45.488;12.238;2023-12-29T00:19:34;60.35;;;43.83;;
38787;SDS011;24536;45.488;12.238;2023-12-29T00:22:00;59.47;;;40.25;;
38787;SDS011;24536;45.488;12.238;2023-12-29T00:24:28;72.22;;;50.22;;
38787;SDS011;24536;45.488;12.238;2023-12-29T00:26:56;58.05;;;40.05;;
38787;SDS011;24536;45.488;12.238;2023-12-29T00:29:23;66.30;;;46.10;;
38787;SDS011;24536;45.488;12.238;2023-12-29T00:31:49;57.15;;;40.30;;
38787;SDS011;24536;45.488;12.238;2023-12-29T00:34:14;53.40;;;38.33;;
38787;SDS011;24536;45.488;12.238;2023-12-29T00:36:40;56.75;;;40.70;;
38787;SDS011;24536;45.488;12.238;2023-12-29T00:39:06;60.38;;;39.70;;
38787;SDS011;24536;45.488;12.238;2023-12-29T00:41:31;57.75;;;40.95;;
38787;SDS011;24536;45.488;12.238;2023-12-29T00:43:57;57.33;;;39.92;;
38787;SDS011;24536;45.488;12.238;2023-12-29T00:46:23;60.47;;;40.67;;
38787;SDS011;24536;45.488;12.238;2023-12-29T00:48:49;55.10;;;39.90;;
38787;SDS011;24536;45.488;12.238;2023-12-29T00:51:14;58.67;;;39.70;;
38787;SDS011;24536;45.488;12.238;2023-12-29T00:53:40;51.05;;;35.08;;
38787;SDS011;24536;45.488;12.238;2023-12-29T00:56:12;48.95;;;35.75;;
38787;SDS011;24536;45.488;12.238;2023-12-29T00:58:38;73.88;;;51.25;;
38787;SDS011;24536;45.488;12.238;2023-12-29T01:01:05;63.70;;;45.40;;
38787;SDS011;24536;45.488;12.238;2023-12-29T01:03:33;43.72;;;31.90;;
38787;SDS011;24536;45.488;12.238;2023-12-29T01:05:59;48.72;;;34.42;;
38787;SDS011;24536;45.488;12.238;2023-12-29T01:08:25;50.88;;;34.90;;
38787;SDS011;24536;45.488;12.238;2023-12-29T01:10:50;51.83;;;37.13;;
38787;SDS011;24536;45.488;12.238;2023-12-29T01:13:16;46.60;;;33.88;;
38787;SDS011;24536;45.488;12.238;2023-12-29T01:15:42;50.53;;;37.55;;
38787;SDS011;24536;45.488;12.238;2023-12-29T01:18:10;53.13;;;38.25;;
38787;SDS011;24536;45.488;12.238;2023-12-29T01:20:37;53.25;;;36.17;;
38787;SDS011;24536;45.488;12.238;2023-12-29T01:23:04;53.40;;;37.10;;
38787;SDS011;24536;45.488;12.238;2023-12-29T01:25:30;53.08;;;36.35;;
38787;SDS011;24536;45.488;12.238;2023-12-29T01:27:56;52.05;;;37.95;;
38787;SDS011;24536;45.488;12.238;2023-12-29T01:30:23;53.63;;;37.33;;
38787;SDS011;24536;45.488;12.238;2023-12-29T01:32:48;52.95;;;36.35;;
38787;SDS011;24536;45.488;12.238;2023-12-29T01:35:14;50.15;;;38.30;;
38787;SDS011;24536;45.488;12.238;2023-12-29T01:37:40;74.10;;;50.33;;
38787;SDS011;24536;45.488;12.238;2023-12-29T01:40:07;52.80;;;38.60;;
38787;SDS011;24536;45.488;12.238;2023-12-29T01:42:33;56.13;;;38.83;;
38787;SDS011;24536;45.488;12.238;2023-12-29T01:44:58;47.03;;;35.40;;
38787;SDS011;24536;45.488;12.238;2023-12-29T01:47:24;60.67;;;41.60;;
38787;SDS011;24536;45.488;12.238;2023-12-29T01:49:50;53.75;;;39.17;;
38787;SDS011;24536;45.488;12.238;2023-12-29T01:52:16;52.35;;;38.38;;
38787;SDS011;24536;45.488;12.238;2023-12-29T01:54:43;55.45;;;38.33;;
38787;SDS011;24536;45.488;12.238;2023-12-29T01:57:10;43.58;;;31.35;;
38787;SDS011;24536;45.488;12.238;2023-12-29T01:59:37;62.25;;;41.92;;
38787;SDS011;24536;45.488;12.238;2023-12-29T02:02:05;39.35;;;29.90;;
38787;SDS011;24536;45.488;12.238;2023-12-29T02:04:31;52.17;;;32.35;;
38787;SDS011;24536;45.488;12.238;2023-12-29T02:06:58;54.65;;;37.75;;
38787;SDS011;24536;45.488;12.238;2023-12-29T02:09:24;48.33;;;34.92;;
38787;SDS011;24536;45.488;12.238;2023-12-29T02:11:49;50.97;;;35.80;;
38787;SDS011;24536;45.488;12.238;2023-12-29T02:14:15;46.08;;;34.58;;
38787;SDS011;24536;45.488;12.238;2023-12-29T02:19:39;57.40;;;38.05;;
38787;SDS011;24536;45.488;12.238;2023-12-29T02:22:07;54.83;;;36.85;;
38787;SDS011;24536;45.488;12.238;2023-12-29T02:24:34;57.38;;;38.70;;
38787;SDS011;24536;45.488;12.238;2023-12-29T02:32:39;55.25;;;37.78;;
38787;SDS011;24536;45.488;12.238;2023-12-29T02:35:12;51.38;;;37.28;;
38787;SDS011;24536;45.488;12.238;2023-12-29T02:37:42;59.95;;;40.05;;
38787;SDS011;24536;45.488;12.238;2023-12-29T02:40:08;57.13;;;40.42;;
38787;SDS011;24536;45.488;12.238;2023-12-29T02:42:34;54.85;;;37.38;;
38787;SDS011;24536;45.488;12.238;2023-12-29T02:45:00;53.20;;;37.20;;
38787;SDS011;24536;45.488;12.238;2023-12-29T02:47:26;53.13;;;36.30;;
38787;SDS011;24536;45.488;12.238;2023-12-29T02:49:52;61.08;;;41.88;;
38787;SDS011;24536;45.488;12.238;2023-12-29T02:52:17;51.35;;;36.70;;
38787;SDS011;24536;45.488;12.238;2023-12-29T02:54:43;55.50;;;36.58;;
38787;SDS011;24536;45.488;12.238;2023-12-29T02:57:09;45.20;;;31.70;;
38787;SDS011;24536;45.488;12.238;2023-12-29T02:59:34;46.67;;;31.40;;
38787;SDS011;24536;45.488;12.238;2023-12-29T03:02:02;47.40;;;33.08;;
38787;SDS011;24536;45.488;12.238;2023-12-29T03:04:29;52.28;;;32.30;;
38787;SDS011;24536;45.488;12.238;2023-12-29T03:06:54;52.88;;;33.75;;
38787;SDS011;24536;45.488;12.238;2023-12-29T03:09:20;48.75;;;35.58;;
38787;SDS011;24536;45.488;12.238;2023-12-29T03:11:46;44.10;;;30.83;;
38787;SDS011;24536;45.488;12.238;2023-12-29T03:14:11;53.72;;;37.92;;
38787;SDS011;24536;45.488;12.238;2023-12-29T03:16:39;45.35;;;31.98;;
38787;SDS011;24536;45.488;12.238;2023-12-29T03:19:05;54.55;;;35.47;;
38787;SDS011;24536;45.488;12.238;2023-12-29T03:21:30;46.55;;;33.20;;
38787;SDS011;24536;45.488;12.238;2023-12-29T03:23:56;46.38;;;29.73;;
38787;SDS011;24536;45.488;12.238;2023-12-29T03:26:22;45.05;;;31.02;;
38787;SDS011;24536;45.488;12.238;2023-12-29T03:28:48;41.75;;;28.88;;
38787;SDS011;24536;45.488;12.238;2023-12-29T03:31:13;47.58;;;31.83;;
38787;SDS011;24536;45.488;12.238;2023-12-29T03:33:39;48.55;;;32.72;;
38787;SDS011;24536;45.488;12.238;2023-12-29T03:36:05;44.00;;;29.98;;
38787;SDS011;24536;45.488;12.238;2023-12-29T03:38:32;41.40;;;29.45;;
38787;SDS011;24536;45.488;12.238;2023-12-29T03:40:58;41.85;;;28.75;;
38787;SDS011;24536;45.488;12.238;2023-12-29T03:43:24;44.67;;;30.30;;
38787;SDS011;24536;45.488;12.238;2023-12-29T03:45:49;42.15;;;28.58;;
38787;SDS011;24536;45.488;12.238;2023-12-29T03:48:15;42.33;;;26.70;;
38787;SDS011;24536;45.488;12.238;2023-12-29T03:50:41;38.78;;;28.35;;
38787;SDS011;24536;45.488;12.238;2023-12-29T03:53:07;39.10;;;27.63;;
38787;SDS011;24536;45.488;12.238;2023-12-29T03:55:32;39.50;;;27.60;;
38787;SDS011;24536;45.488;12.238;2023-12-29T03:57:58;41.15;;;28.50;;
38787;SDS011;24536;45.488;12.238;2023-12-29T04:00:25;39.72;;;26.95;;
38787;SDS011;24536;45.488;12.238;2023-12-29T04:02:50;43.40;;;29.25;;
38787;SDS011;24536;45.488;12.238;2023-12-29T04:05:16;42.28;;;28.05;;
38787;SDS011;24536;45.488;12.238;2023-12-29T04:07:42;41.15;;;28.48;;
38787;SDS011;24536;45.488;12.238;2023-12-29T04:10:07;42.30;;;27.30;;
38787;SDS011;24536;45.488;12.238;2023-12-29T04:12:34;40.22;;;26.50;;
38787;SDS011;24536;45.488;12.238;2023-12-29T04:14:59;40.08;;;27.42;;
38787;SDS011;24536;45.488;12.238;2023-12-29T04:17:25;39.08;;;25.98;;
38787;SDS011;24536;45.488;12.238;2023-12-29T04:19:51;38.22;;;25.08;;
38787;SDS011;24536;45.488;12.238;2023-12-29T04:22:18;34.38;;;23.35;;
38787;SDS011;24536;45.488;12.238;2023-12-29T04:24:43;40.53;;;26.20;;
38787;SDS011;24536;45.488;12.238;2023-12-29T04:27:09;26.52;;;17.58;;
38787;SDS011;24536;45.488;12.238;2023-12-29T04:29:35;31.67;;;21.50;;
38787;SDS011;24536;45.488;12.238;2023-12-29T04:32:01;35.53;;;23.25;;
38787;SDS011;24536;45.488;12.238;2023-12-29T04:34:26;31.55;;;22.33;;
38787;SDS011;24536;45.488;12.238;2023-12-29T04:36:52;31.15;;;20.80;;
38787;SDS011;24536;45.488;12.238;2023-12-29T04:39:18;23.98;;;16.92;;
38787;SDS011;24536;45.488;12.238;2023-12-29T04:41:43;30.00;;;21.33;;
38787;SDS011;24536;45.488;12.238;2023-12-29T04:44:09;21.85;;;15.05;;
38787;SDS011;24536;45.488;12.238;2023-12-29T04:46:35;23.75;;;16.58;;
38787;SDS011;24536;45.488;12.238;2023-12-29T04:49:01;26.45;;;17.95;;
38787;SDS011;24536;45.488;12.238;2023-12-29T04:51:27;26.67;;;18.23;;
38787;SDS011;24536;45.488;12.238;2023-12-29T04:53:53;26.70;;;17.73;;
38787;SDS011;24536;45.488;12.238;2023-12-29T04:56:19;27.60;;;18.13;;
38787;SDS011;24536;45.488;12.238;2023-12-29T04:58:45;28.02;;;18.35;;
38787;SDS011;24536;45.488;12.238;2023-12-29T05:01:10;25.10;;;17.25;;
38787;SDS011;24536;45.488;12.238;2023-12-29T05:03:36;24.20;;;18.15;;
38787;SDS011;24536;45.488;12.238;2023-12-29T05:06:02;25.95;;;17.77;;
38787;SDS011;24536;45.488;12.238;2023-12-29T05:08:27;25.00;;;16.52;;
38787;SDS011;24536;45.488;12.238;2023-12-29T05:10:53;27.50;;;18.83;;
38787;SDS011;24536;45.488;12.238;2023-12-29T05:13:20;25.63;;;16.90;;
38787;SDS011;24536;45.488;12.238;2023-12-29T05:15:46;24.17;;;17.17;;
38787;SDS011;24536;45.488;12.238;2023-12-29T05:18:12;24.92;;;17.23;;
38787;SDS011;24536;45.488;12.238;2023-12-29T05:20:37;28.00;;;18.90;;
38787;SDS011;24536;45.488;12.238;2023-12-29T05:23:03;25.45;;;18.60;;
38787;SDS011;24536;45.488;12.238;2023-12-29T05:25:29;27.65;;;18.75;;
38787;SDS011;24536;45.488;12.238;2023-12-29T05:27:55;26.77;;;17.60;;
38787;SDS011;24536;45.488;12.238;2023-12-29T05:30:20;27.85;;;18.25;;
38787;SDS011;24536;45.488;12.238;2023-12-29T05:32:46;29.05;;;17.45;;
38787;SDS011;24536;45.488;12.238;2023-12-29T05:35:11;23.63;;;16.50;;
38787;SDS011;24536;45.488;12.238;2023-12-29T05:37:37;24.13;;;16.35;;
38787;SDS011;24536;45.488;12.238;2023-12-29T05:40:03;22.38;;;15.43;;
38787;SDS011;24536;45.488;12.238;2023-12-29T05:42:29;21.58;;;15.35;;
38787;SDS011;24536;45.488;12.238;2023-12-29T05:44:55;24.25;;;16.33;;
38787;SDS011;24536;45.488;12.238;2023-12-29T05:47:21;22.77;;;16.25;;
38787;SDS011;24536;45.488;12.238;2023-12-29T05:49:46;23.65;;;15.18;;
38787;SDS011;24536;45.488;12.238;2023-12-29T05:52:12;24.25;;;16.67;;
38787;SDS011;24536;45.488;12.238;2023-12-29T05:54:37;21.85;;;14.88;;
38787;SDS011;24536;45.488;12.238;2023-12-29T05:57:03;22.02;;;15.10;;
38787;SDS011;24536;45.488;12.238;2023-12-29T05:59:29;21.40;;;14.57;;
38787;SDS011;24536;45.488;12.238;2023-12-29T06:01:54;18.85;;;13.10;;
38787;SDS011;24536;45.488;12.238;2023-12-29T06:04:21;22.40;;;13.75;;
38787;SDS011;24536;45.488;12.238;2023-12-29T06:06:47;21.00;;;13.45;;
38787;SDS011;24536;45.488;12.238;2023-12-29T06:09:14;18.20;;;12.45;;
38787;SDS011;24536;45.488;12.238;2023-12-29T06:11:39;19.50;;;13.25;;
38787;SDS011;24536;45.488;12.238;2023-12-29T06:14:05;17.10;;;11.82;;
38787;SDS011;24536;45.488;12.238;2023-12-29T06:16:32;18.25;;;13.25;;
38787;SDS011;24536;45.488;12.238;2023-12-29T06:18:58;17.25;;;12.80;;
38787;SDS011;24536;45.488;12.238;2023-12-29T06:21:24;19.45;;;12.80;;
38787;SDS011;24536;45.488;12.238;2023-12-29T06:23:50;19.10;;;12.40;;
38787;SDS011;24536;45.488;12.238;2023-12-29T06:26:16;20.70;;;13.13;;
38787;SDS011;24536;45.488;12.238;2023-12-29T06:28:43;20.70;;;12.73;;
38787;SDS011;24536;45.488;12.238;2023-12-29T06:31:12;21.15;;;12.95;;
38787;SDS011;24536;45.488;12.238;2023-12-29T06:33:41;19.13;;;13.35;;
38787;SDS011;24536;45.488;12.238;2023-12-29T06:36:08;17.67;;;12.25;;
38787;SDS011;24536;45.488;12.238;2023-12-29T06:38:34;23.00;;;16.27;;
38787;SDS011;24536;45.488;12.238;2023-12-29T06:41:01;19.50;;;14.57;;
38787;SDS011;24536;45.488;12.238;2023-12-29T06:43:28;18.27;;;12.55;;
38787;SDS011;24536;45.488;12.238;2023-12-29T06:45:54;19.63;;;12.95;;
38787;SDS011;24536;45.488;12.238;2023-12-29T06:48:20;22.08;;;14.55;;
38787;SDS011;24536;45.488;12.238;2023-12-29T06:50:46;26.73;;;17.00;;
38787;SDS011;24536;45.488;12.238;2023-12-29T06:53:11;21.90;;;14.63;;
38787;SDS011;24536;45.488;12.238;2023-12-29T06:55:37;28.92;;;18.27;;
38787;SDS011;24536;45.488;12.238;2023-12-29T06:58:04;16.85;;;11.18;;
38787;SDS011;24536;45.488;12.238;2023-12-29T07:00:30;22.00;;;15.48;;
38787;SDS011;24536;45.488;12.238;2023-12-29T07:02:55;17.25;;;12.70;;
38787;SDS011;24536;45.488;12.238;2023-12-29T07:05:21;26.75;;;16.10;;
38787;SDS011;24536;45.488;12.238;2023-12-29T07:07:47;21.40;;;15.07;;
38787;SDS011;24536;45.488;12.238;2023-12-29T07:10:13;22.65;;;14.38;;
38787;SDS011;24536;45.488;12.238;2023-12-29T07:12:39;20.23;;;13.90;;
38787;SDS011;24536;45.488;12.238;2023-12-29T07:15:07;20.98;;;14.02;;
38787;SDS011;24536;45.488;12.238;2023-12-29T07:17:33;20.13;;;14.27;;
38787;SDS011;24536;45.488;12.238;2023-12-29T07:20:00;22.90;;;14.20;;
38787;SDS011;24536;45.488;12.238;2023-12-29T07:22:26;21.83;;;13.20;;
38787;SDS011;24536;45.488;12.238;2023-12-29T07:24:51;20.73;;;12.45;;
38787;SDS011;24536;45.488;12.238;2023-12-29T07:27:18;24.10;;;14.38;;
38787;SDS011;24536;45.488;12.238;2023-12-29T07:29:44;20.67;;;15.30;;
38787;SDS011;24536;45.488;12.238;2023-12-29T07:32:09;22.35;;;14.63;;
38787;SDS011;24536;45.488;12.238;2023-12-29T07:34:35;18.88;;;13.73;;
38787;SDS011;24536;45.488;12.238;2023-12-29T07:37:01;23.67;;;15.55;;
38787;SDS011;24536;45.488;12.238;2023-12-29T07:39:27;21.45;;;15.10;;
38787;SDS011;24536;45.488;12.238;2023-12-29T07:41:52;21.33;;;14.90;;
38787;SDS011;24536;45.488;12.238;2023-12-29T07:44:18;18.00;;;13.85;;
38787;SDS011;24536;45.488;12.238;2023-12-29T07:46:44;22.55;;;15.05;;
38787;SDS011;24536;45.488;12.238;2023-12-29T07:49:10;21.20;;;14.85;;
38787;SDS011;24536;45.488;12.238;2023-12-29T07:51:39;20.05;;;13.52;;
38787;SDS011;24536;45.488;12.238;2023-12-29T07:54:06;24.08;;;15.38;;
38787;SDS011;24536;45.488;12.238;2023-12-29T07:56:32;23.67;;;14.15;;
38787;SDS011;24536;45.488;12.238;2023-12-29T07:58:58;23.55;;;15.73;;
38787;SDS011;24536;45.488;12.238;2023-12-29T08:01:24;23.27;;;14.52;;
38787;SDS011;24536;45.488;12.238;2023-12-29T08:03:50;22.63;;;15.82;;
38787;SDS011;24536;45.488;12.238;2023-12-29T08:06:16;20.55;;;13.88;;
38787;SDS011;24536;45.488;12.238;2023-12-29T08:08:49;20.90;;;14.57;;
38787;SDS011;24536;45.488;12.238;2023-12-29T08:11:19;20.25;;;13.88;;
38787;SDS011;24536;45.488;12.238;2023-12-29T08:13:46;20.10;;;14.10;;
38787;SDS011;24536;45.488;12.238;2023-12-29T08:16:12;22.90;;;15.23;;
38787;SDS011;24536;45.488;12.238;2023-12-29T08:18:38;25.65;;;14.65;;
38787;SDS011;24536;45.488;12.238;2023-12-29T08:21:04;24.02;;;15.63;;
38787;SDS011;24536;45.488;12.238;2023-12-29T08:23:30;23.55;;;15.80;;
38787;SDS011;24536;45.488;12.238;2023-12-29T08:25:56;24.95;;;16.00;;
38787;SDS011;24536;45.488;12.238;2023-12-29T08:28:23;21.33;;;15.48;;
38787;SDS011;24536;45.488;12.238;2023-12-29T08:30:49;20.45;;;14.65;;
38787;SDS011;24536;45.488;12.238;2023-12-29T08:33:15;22.65;;;15.15;;
38787;SDS011;24536;45.488;12.238;2023-12-29T08:35:41;20.95;;;14.52;;
38787;SDS011;24536;45.488;12.238;2023-12-29T08:38:07;25.42;;;16.73;;
38787;SDS011;24536;45.488;12.238;2023-12-29T08:40:32;25.08;;;15.52;;
38787;SDS011;24536;45.488;12.238;2023-12-29T08:42:58;22.23;;;15.88;;
38787;SDS011;24536;45.488;12.238;2023-12-29T08:45:26;26.30;;;15.85;;
38787;SDS011;24536;45.488;12.238;2023-12-29T08:47:52;25.40;;;17.00;;
38787;SDS011;24536;45.488;12.238;2023-12-29T08:50:17;28.98;;;16.45;;
38787;SDS011;24536;45.488;12.238;2023-12-29T08:52:43;21.65;;;15.23;;
38787;SDS011;24536;45.488;12.238;2023-12-29T08:55:09;25.95;;;16.08;;
38787;SDS011;24536;45.488;12.238;2023-12-29T08:57:35;23.05;;;16.02;;
38787;SDS011;24536;45.488;12.238;2023-12-29T09:00:00;21.63;;;15.25;;
38787;SDS011;24536;45.488;12.238;2023-12-29T09:02:26;24.35;;;16.38;;
38787;SDS011;24536;45.488;12.238;2023-12-29T09:04:52;23.55;;;14.63;;
38787;SDS011;24536;45.488;12.238;2023-12-29T09:07:18;21.42;;;14.77;;
38787;SDS011;24536;45.488;12.238;2023-12-29T09:09:43;23.88;;;14.65;;
38787;SDS011;24536;45.488;12.238;2023-12-29T09:12:09;21.73;;;15.13;;
38787;SDS011;24536;45.488;12.238;2023-12-29T09:14:35;20.55;;;14.18;;
38787;SDS011;24536;45.488;12.238;2023-12-29T09:17:01;24.73;;;15.85;;
38787;SDS011;24536;45.488;12.238;2023-12-29T09:19:27;31.80;;;20.65;;
38787;SDS011;24536;45.488;12.238;2023-12-29T09:21:53;22.73;;;15.38;;
38787;SDS011;24536;45.488;12.238;2023-12-29T09:24:18;18.67;;;13.13;;
38787;SDS011;24536;45.488;12.238;2023-12-29T09:26:44;34.35;;;20.55;;
38787;SDS011;24536;45.488;12.238;2023-12-29T09:29:10;23.85;;;17.38;;
38787;SDS011;24536;45.488;12.238;2023-12-29T09:31:35;23.02;;;15.60;;
38787;SDS011;24536;45.488;12.238;2023-12-29T09:34:01;26.20;;;17.02;;
38787;SDS011;24536;45.488;12.238;2023-12-29T09:36:27;29.90;;;19.05;;
38787;SDS011;24536;45.488;12.238;2023-12-29T09:38:53;28.10;;;18.77;;
38787;SDS011;24536;45.488;12.238;2023-12-29T09:41:19;18.02;;;12.25;;
38787;SDS011;24536;45.488;12.238;2023-12-29T09:43:48;21.67;;;15.07;;
38787;SDS011;24536;45.488;12.238;2023-12-29T09:46:16;24.55;;;15.07;;
38787;SDS011;24536;45.488;12.238;2023-12-29T09:51:12;21.25;;;14.10;;
38787;SDS011;24536;45.488;12.238;2023-12-29T09:53:41;18.42;;;13.65;;
38787;SDS011;24536;45.488;12.238;2023-12-29T09:56:07;22.52;;;13.63;;
38787;SDS011;24536;45.488;12.238;2023-12-29T09:58:34;24.58;;;15.88;;
38787;SDS011;24536;45.488;12.238;2023-12-29T10:01:05;21.65;;;14.98;;
38787;SDS011;24536;45.488;12.238;2023-12-29T10:03:31;18.83;;;14.18;;
38787;SDS011;24536;45.488;12.238;2023-12-29T10:05:59;21.67;;;14.90;;
38787;SDS011;24536;45.488;12.238;2023-12-29T10:10:57;37.92;;;22.73;;
38787;SDS011;24536;45.488;12.238;2023-12-29T10:13:25;39.03;;;24.98;;
38787;SDS011;24536;45.488;12.238;2023-12-29T10:18:37;23.08;;;16.48;;
38787;SDS011;24536;45.488;12.238;2023-12-29T10:24:21;33.42;;;22.27;;
38787;SDS011;24536;45.488;12.238;2023-12-29T10:26:48;22.80;;;16.60;;
38787;SDS011;24536;45.488;12.238;2023-12-29T10:29:15;24.30;;;15.45;;
38787;SDS011;24536;45.488;12.238;2023-12-29T10:31:43;37.25;;;24.02;;
38787;SDS011;24536;45.488;12.238;2023-12-29T10:34:19;38.35;;;25.13;;
38787;SDS011;24536;45.488;12.238;2023-12-29T10:36:54;29.80;;;19.30;;
38787;SDS011;24536;45.488;12.238;2023-12-29T10:39:20;27.52;;;19.83;;
38787;SDS011;24536;45.488;12.238;2023-12-29T10:41:46;25.15;;;17.73;;
38787;SDS011;24536;45.488;12.238;2023-12-29T10:44:12;32.38;;;19.40;;
38787;SDS011;24536;45.488;12.238;2023-12-29T10:46:37;23.17;;;15.55;;
38787;SDS011;24536;45.488;12.238;2023-12-29T10:49:21;24.20;;;16.75;;
38787;SDS011;24536;45.488;12.238;2023-12-29T10:51:47;21.42;;;15.55;;
38787;SDS011;24536;45.488;12.238;2023-12-29T10:54:19;19.08;;;13.88;;
38787;SDS011;24536;45.488;12.238;2023-12-29T10:57:01;21.35;;;14.35;;
38787;SDS011;24536;45.488;12.238;2023-12-29T10:59:28;19.15;;;13.25;;
38787;SDS011;24536;45.488;12.238;2023-12-29T11:01:53;23.23;;;16.33;;
38787;SDS011;24536;45.488;12.238;2023-12-29T11:04:21;20.20;;;14.15;;
38787;SDS011;24536;45.488;12.238;2023-12-29T11:06:48;24.48;;;15.68;;
38787;SDS011;24536;45.488;12.238;2023-12-29T11:09:28;23.20;;;16.73;;
38787;SDS011;24536;45.488;12.238;2023-12-29T11:11:58;40.20;;;27.05;;
38787;SDS011;24536;45.488;12.238;2023-12-29T11:14:28;21.13;;;15.32;;
38787;SDS011;24536;45.488;12.238;2023-12-29T11:16:54;22.98;;;15.48;;
38787;SDS011;24536;45.488;12.238;2023-12-29T11:19:25;25.67;;;18.38;;
38787;SDS011;24536;45.488;12.238;2023-12-29T11:21:52;27.92;;;20.33;;
38787;SDS011;24536;45.488;12.238;2023-12-29T11:24:20;33.75;;;21.95;;
38787;SDS011;24536;45.488;12.238;2023-12-29T11:26:46;23.00;;;16.70;;
38787;SDS011;24536;45.488;12.238;2023-12-29T11:29:13;26.52;;;18.88;;
38787;SDS011;24536;45.488;12.238;2023-12-29T11:31:41;43.65;;;26.90;;
38787;SDS011;24536;45.488;12.238;2023-12-29T11:34:19;35.28;;;22.20;;
38787;SDS011;24536;45.488;12.238;2023-12-29T11:36:50;31.45;;;21.27;;
38787;SDS011;24536;45.488;12.238;2023-12-29T11:39:38;29.95;;;19.17;;
38787;SDS011;24536;45.488;12.238;2023-12-29T11:42:26;32.83;;;20.92;;
38787;SDS011;24536;45.488;12.238;2023-12-29T11:44:56;34.17;;;22.63;;
38787;SDS011;24536;45.488;12.238;2023-12-29T11:47:35;28.50;;;19.20;;
38787;SDS011;24536;45.488;12.238;2023-12-29T11:50:02;29.25;;;20.55;;
38787;SDS011;24536;45.488;12.238;2023-12-29T11:52:35;26.00;;;19.02;;
38787;SDS011;24536;45.488;12.238;2023-12-29T11:55:08;26.38;;;18.25;;
38787;SDS011;24536;45.488;12.238;2023-12-29T11:57:38;27.90;;;17.77;;
38787;SDS011;24536;45.488;12.238;2023-12-29T12:00:05;35.92;;;21.42;;
38787;SDS011;24536;45.488;12.238;2023-12-29T12:02:32;27.20;;;17.13;;
38787;SDS011;24536;45.488;12.238;2023-12-29T12:09:51;40.03;;;27.90;;
38787;SDS011;24536;45.488;12.238;2023-12-29T12:15:09;21.83;;;14.07;;
38787;SDS011;24536;45.488;12.238;2023-12-29T12:18:00;31.17;;;18.55;;
38787;SDS011;24536;45.488;12.238;2023-12-29T12:20:29;26.33;;;16.98;;
38787;SDS011;24536;45.488;12.238;2023-12-29T12:23:02;32.40;;;22.08;;
38787;SDS011;24536;45.488;12.238;2023-12-29T12:25:32;31.35;;;20.85;;
38787;SDS011;24536;45.488;12.238;2023-12-29T12:28:00;32.28;;;22.73;;
38787;SDS011;24536;45.488;12.238;2023-12-29T12:30:30;35.75;;;24.95;;
38787;SDS011;24536;45.488;12.238;2023-12-29T12:32:59;39.03;;;27.58;;
38787;SDS011;24536;45.488;12.238;2023-12-29T12:35:26;23.70;;;15.32;;
38787;SDS011;24536;45.488;12.238;2023-12-29T12:38:25;25.25;;;17.13;;
38787;SDS011;24536;45.488;12.238;2023-12-29T12:40:47;29.05;;;19.33;;
38787;SDS011;24536;45.488;12.238;2023-12-29T12:43:13;25.00;;;18.77;;
38787;SDS011;24536;45.488;12.238;2023-12-29T12:45:41;27.50;;;18.85;;
38787;SDS011;24536;45.488;12.238;2023-12-29T12:48:44;27.90;;;18.13;;
38787;SDS011;24536;45.488;12.238;2023-12-29T12:51:11;27.80;;;18.83;;
38787;SDS011;24536;45.488;12.238;2023-12-29T12:53:41;22.42;;;16.40;;
38787;SDS011;24536;45.488;12.238;2023-12-29T12:56:09;38.60;;;25.67;;
38787;SDS011;24536;45.488;12.238;2023-12-29T12:58:36;27.10;;;19.05;;
38787;SDS011;24536;45.488;12.238;2023-12-29T13:01:02;28.10;;;18.02;;
38787;SDS011;24536;45.488;12.238;2023-12-29T13:03:29;27.55;;;18.20;;
38787;SDS011;24536;45.488;12.238;2023-12-29T13:05:57;34.35;;;20.60;;
38787;SDS011;24536;45.488;12.238;2023-12-29T13:08:23;25.88;;;17.92;;
38787;SDS011;24536;45.488;12.238;2023-12-29T13:10:50;23.35;;;15.85;;
38787;SDS011;24536;45.488;12.238;2023-12-29T13:13:16;40.10;;;25.08;;
38787;SDS011;24536;45.488;12.238;2023-12-29T13:15:49;20.42;;;14.27;;
38787;SDS011;24536;45.488;12.238;2023-12-29T13:18:16;26.75;;;17.00;;
38787;SDS011;24536;45.488;12.238;2023-12-29T13:20:44;26.83;;;18.65;;
38787;SDS011;24536;45.488;12.238;2023-12-29T13:23:10;38.55;;;26.30;;
38787;SDS011;24536;45.488;12.238;2023-12-29T13:25:36;25.58;;;17.00;;
38787;SDS011;24536;45.488;12.238;2023-12-29T13:28:05;20.77;;;15.93;;
38787;SDS011;24536;45.488;12.238;2023-12-29T13:30:31;25.95;;;17.83;;
38787;SDS011;24536;45.488;12.238;2023-12-29T13:32:58;27.65;;;19.08;;
38787;SDS011;24536;45.488;12.238;2023-12-29T13:35:28;26.83;;;18.13;;
38787;SDS011;24536;45.488;12.238;2023-12-29T13:38:12;26.75;;;18.33;;
38787;SDS011;24536;45.488;12.238;2023-12-29T13:43:20;29.50;;;18.25;;
38787;SDS011;24536;45.488;12.238;2023-12-29T13:45:47;26.90;;;17.92;;
38787;SDS011;24536;45.488;12.238;2023-12-29T13:48:13;27.73;;;18.15;;
38787;SDS011;24536;45.488;12.238;2023-12-29T13:50:50;25.02;;;17.00;;
38787;SDS011;24536;45.488;12.238;2023-12-29T13:53:19;22.00;;;16.10;;
38787;SDS011;24536;45.488;12.238;2023-12-29T13:55:45;24.25;;;16.27;;
38787;SDS011;24536;45.488;12.238;2023-12-29T13:58:12;22.42;;;15.75;;
38787;SDS011;24536;45.488;12.238;2023-12-29T14:00:41;24.30;;;17.13;;
38787;SDS011;24536;45.488;12.238;2023-12-29T14:06:11;29.33;;;18.15;;
38787;SDS011;24536;45.488;12.238;2023-12-29T14:11:10;26.20;;;17.05;;
38787;SDS011;24536;45.488;12.238;2023-12-29T14:13:43;30.33;;;16.65;;
38787;SDS011;24536;45.488;12.238;2023-12-29T14:16:10;27.33;;;16.27;;
38787;SDS011;24536;45.488;12.238;2023-12-29T14:21:22;26.23;;;16.48;;
38787;SDS011;24536;45.488;12.238;2023-12-29T14:26:30;22.08;;;14.77;;
38787;SDS011;24536;45.488;12.238;2023-12-29T14:29:05;19.15;;;14.43;;
38787;SDS011;24536;45.488;12.238;2023-12-29T14:31:37;26.02;;;16.80;;
38787;SDS011;24536;45.488;12.238;2023-12-29T14:34:04;20.90;;;14.55;;
38787;SDS011;24536;45.488;12.238;2023-12-29T14:36:31;24.75;;;16.67;;
38787;SDS011;24536;45.488;12.238;2023-12-29T14:39:09;25.38;;;18.13;;
38787;SDS011;24536;45.488;12.238;2023-12-29T14:41:38;25.27;;;17.35;;
38787;SDS011;24536;45.488;12.238;2023-12-29T14:44:04;25.90;;;15.82;;
38787;SDS011;24536;45.488;12.238;2023-12-29T14:46:30;28.60;;;18.45;;
38787;SDS011;24536;45.488;12.238;2023-12-29T14:48:58;24.38;;;16.83;;